Comox, Canada
Current Conditions -  °F | °C
As of 10:00 AM on Saturday 25 Oct 2014 (Local Time) from CYQQ Reporting Station
Light Rain Light Rain  
Wind Chill: 39°   Ceiling: 2400
Heat Index: 43°   Visibility: 8mi
Dew Point: 43°   Wind: 7mph
Humidity: 100%   Direction: 260°W
Pressure: 29.49"   Gusts: NA
Location:  49.67°N, 124.93°W
Report Text: CYQQ 251700Z 26006KT 8SM -RA FEW005 OVC024 06/06 A2949 RMK SF2SC6 SLP987
Loading
Personal Weather Stations






























Interactive Weather Map
Tropical Storm Tracking
New forecast layout! Learn more

10-Day Weather Forecast

Advertisements
Track Severe Weather on mobile